Time;durP1;ratioP1;P1;durP2;ratioP2;P2;SDS_P1;SDS_P2;PMS_P1;PMS_P2;Temp;Humidity;BMP_temperature;BMP_pressure;BME280_temperature;BME280_humidity;BME280_pressure;Samples;Min_cycle;Max_cycle;Signal;HPM_P1;HPM_P2
2021/06/21 00:01:57;;;;;;;4.90;1.30;;;15.90;99.90;;;;;;4949958;29;20282;-77
2021/06/21 00:04:25;;;;;;;4.63;1.20;;;15.80;99.90;;;;;;4949254;29;20239;-77
2021/06/21 00:06:52;;;;;;;5.17;1.60;;;15.80;99.90;;;;;;4951653;29;20341;-77
2021/06/21 00:09:19;;;;;;;4.57;1.30;;;15.80;99.90;;;;;;4955544;29;20302;-78
2021/06/21 00:11:46;;;;;;;3.97;1.33;;;15.80;99.90;;;;;;4954405;28;20294;-77
2021/06/21 00:14:13;;;;;;;2.67;1.30;;;15.70;99.90;;;;;;4955296;29;20231;-78
2021/06/21 00:16:40;;;;;;;5.93;1.53;;;15.60;99.90;;;;;;4955076;29;20661;-78
2021/06/21 00:19:07;;;;;;;4.13;1.67;;;15.60;99.90;;;;;;4955083;29;20622;-78
2021/06/21 00:21:35;;;;;;;4.30;1.60;;;15.60;99.90;;;;;;4938798;29;20251;-77
2021/06/21 00:24:02;;;;;;;7.03;1.43;;;15.60;99.90;;;;;;4937860;29;20242;-78
2021/06/21 00:26:29;;;;;;;4.27;1.50;;;15.70;99.90;;;;;;4954840;29;20221;-77
2021/06/21 00:28:56;;;;;;;4.53;1.33;;;15.70;99.90;;;;;;4951448;29;20234;-78
2021/06/21 00:31:24;;;;;;;6.23;1.60;;;15.70;99.90;;;;;;4954711;29;20629;-77
2021/06/21 00:33:51;;;;;;;4.40;1.40;;;15.60;99.90;;;;;;4935628;29;20292;-78
2021/06/21 00:36:18;;;;;;;3.13;1.27;;;15.60;99.90;;;;;;4935856;29;20231;-78
2021/06/21 00:38:46;;;;;;;4.87;1.40;;;15.60;99.90;;;;;;4940639;29;20294;-78
2021/06/21 00:41:13;;;;;;;7.90;1.90;;;15.60;99.90;;;;;;4954439;29;20400;-77
2021/06/21 00:43:40;;;;;;;5.17;1.60;;;15.70;99.90;;;;;;4949055;29;20243;-77
2021/06/21 00:46:06;;;;;;;7.60;1.60;;;15.70;99.90;;;;;;4954379;29;20689;-78
2021/06/21 00:48:33;;;;;;;4.83;2.03;;;15.70;99.90;;;;;;4952915;29;20326;-78
2021/06/21 00:51:00;;;;;;;5.47;1.83;;;15.70;99.90;;;;;;4954249;29;20269;-78
2021/06/21 00:53:27;;;;;;;5.97;2.00;;;15.70;99.90;;;;;;4954387;29;20234;-77
2021/06/21 00:55:56;;;;;;;4.73;2.10;;;15.60;99.90;;;;;;4954042;29;20286;-78
2021/06/21 00:58:24;;;;;;;6.77;2.33;;;15.60;99.90;;;;;;4946269;29;20282;-78
2021/06/21 01:00:51;;;;;;;9.27;2.37;;;15.60;99.90;;;;;;4935391;29;20231;-77
2021/06/21 01:03:18;;;;;;;4.87;1.83;;;15.60;99.90;;;;;;4934188;29;20250;-78
2021/06/21 01:05:44;;;;;;;4.93;2.30;;;15.60;99.90;;;;;;4935496;29;20230;-78
2021/06/21 01:08:11;;;;;;;7.13;2.07;;;15.50;99.90;;;;;;4951160;29;20203;-78
2021/06/21 01:10:41;;;;;;;5.53;2.10;;;15.50;99.90;;;;;;4954042;29;20231;-77
2021/06/21 01:13:45;;;;;;;5.90;2.20;;;15.40;99.90;;;;;;4943942;29;20310;-78
2021/06/21 01:16:21;;;;;;;4.87;2.20;;;15.40;99.90;;;;;;4952778;29;20231;-77
2021/06/21 01:18:55;;;;;;;6.50;2.40;;;15.30;99.90;;;;;;4954363;29;20234;-78
2021/06/21 01:22:04;;;;;;;5.80;2.10;;;15.30;99.90;;;;;;4951941;29;20372;-78
2021/06/21 01:25:07;;;;;;;3.93;1.80;;;15.30;99.90;;;;;;4894494;29;20241;-78
2021/06/21 01:27:45;;;;;;;8.93;2.30;;;15.30;99.90;;;;;;4894087;29;20209;-78
2021/06/21 01:30:14;;;;;;;5.90;2.47;;;15.30;99.90;;;;;;4893460;29;20293;-78
2021/06/21 01:32:45;;;;;;;7.27;2.53;;;15.30;99.90;;;;;;4894592;29;20209;-78
2021/06/21 01:35:19;;;;;;;5.17;2.53;;;15.30;99.90;;;;;;4894717;29;20205;-78
2021/06/21 01:37:48;;;;;;;7.30;2.20;;;15.40;99.90;;;;;;4894346;29;20753;-78
2021/06/21 01:40:20;;;;;;;7.80;2.70;;;15.30;99.90;;;;;;4888534;29;20300;-78
2021/06/21 01:42:51;;;;;;;10.47;3.20;;;15.40;99.90;;;;;;4876004;29;20249;-77
2021/06/21 01:45:20;;;;;;;9.00;2.50;;;15.30;99.90;;;;;;4875548;29;20288;-78
2021/06/21 01:47:53;;;;;;;8.70;2.77;;;15.20;99.90;;;;;;4875871;29;20210;-78
2021/06/21 01:50:22;;;;;;;11.00;3.43;;;15.20;99.90;;;;;;4881970;29;20288;-77
2021/06/21 01:53:01;;;;;;;11.03;3.17;;;15.10;99.90;;;;;;4888315;29;20272;-78
2021/06/21 01:55:30;;;;;;;6.13;2.60;;;15.00;99.90;;;;;;4875469;29;20623;-78
2021/06/21 01:57:59;;;;;;;10.03;3.00;;;14.90;99.90;;;;;;4883680;29;20802;-78
2021/06/21 02:00:27;;;;;;;9.60;3.00;;;14.90;99.90;;;;;;4903040;29;20274;-78
2021/06/21 02:02:58;;;;;;;8.93;3.00;;;14.80;99.90;;;;;;4950142;29;20912;-78
2021/06/21 02:05:26;;;;;;;9.90;3.00;;;14.80;99.90;;;;;;4949828;29;20291;-75
2021/06/21 02:07:54;;;;;;;9.20;3.20;;;14.70;99.90;;;;;;4952304;29;20206;-75
2021/06/21 02:10:22;;;;;;;7.60;3.00;;;14.60;99.90;;;;;;4952982;29;20695;-74
2021/06/21 02:12:50;;;;;;;8.10;3.13;;;14.60;99.90;;;;;;4952938;28;20305;-75
2021/06/21 02:15:18;;;;;;;11.50;3.40;;;14.50;99.90;;;;;;4956825;29;20286;-74
2021/06/21 02:17:46;;;;;;;10.80;3.67;;;14.50;99.90;;;;;;4956579;29;20720;-74
2021/06/21 02:20:16;;;;;;;9.60;3.37;;;14.50;99.90;;;;;;4951154;29;20239;-75
2021/06/21 02:22:45;;;;;;;10.10;3.20;;;14.50;99.90;;;;;;4937667;29;20286;-74
2021/06/21 02:25:14;;;;;;;12.53;3.70;;;14.60;99.90;;;;;;4943859;29;20226;-75
2021/06/21 02:27:42;;;;;;;10.00;3.50;;;14.60;99.90;;;;;;4952462;29;20292;-75
2021/06/21 02:30:11;;;;;;;9.63;3.70;;;14.60;99.90;;;;;;4953486;29;20656;-74
2021/06/21 02:32:39;;;;;;;9.20;3.43;;;14.60;99.90;;;;;;4948403;29;20203;-75
2021/06/21 02:35:09;;;;;;;9.87;3.33;;;14.60;99.90;;;;;;4956119;29;20238;-74
2021/06/21 02:37:38;;;;;;;7.60;3.40;;;14.60;99.90;;;;;;4956264;29;20254;-75
2021/06/21 02:40:06;;;;;;;12.00;3.50;;;14.60;99.90;;;;;;4951704;29;20287;-75
2021/06/21 02:42:33;;;;;;;8.23;3.60;;;14.50;99.90;;;;;;4941174;29;20321;-75
2021/06/21 02:45:00;;;;;;;15.93;3.70;;;14.40;99.90;;;;;;4937228;29;20258;-74
2021/06/21 02:47:27;;;;;;;18.30;4.17;;;14.40;99.90;;;;;;4954688;29;20294;-75
2021/06/21 02:49:54;;;;;;;16.50;4.33;;;14.40;99.90;;;;;;4955898;28;20402;-75
2021/06/21 02:52:30;;;;;;;14.47;4.10;;;14.40;99.90;;;;;;4956184;29;20259;-74
2021/06/21 02:55:09;;;;;;;10.23;3.50;;;14.40;99.90;;;;;;4955606;29;20298;-74
2021/06/21 02:57:45;;;;;;;16.27;3.83;;;14.40;99.90;;;;;;4956255;29;20262;-74
2021/06/21 03:00:14;;;;;;;9.07;3.27;;;14.40;99.90;;;;;;4955971;29;20227;-74
2021/06/21 03:02:43;;;;;;;12.20;3.97;;;14.40;99.90;;;;;;4955870;29;20258;-75
2021/06/21 03:05:11;;;;;;;11.80;3.40;;;14.30;99.90;;;;;;4949790;29;20278;-75
2021/06/21 03:07:39;;;;;;;9.77;3.10;;;14.30;99.90;;;;;;4956298;29;20268;-74
2021/06/21 03:10:09;;;;;;;14.23;3.67;;;14.30;99.90;;;;;;4955880;29;20333;-74
2021/06/21 03:12:37;;;;;;;15.17;3.83;;;14.30;99.90;;;;;;4956341;29;20766;-74
2021/06/21 03:15:06;;;;;;;13.90;3.73;;;14.30;99.90;;;;;;4955970;29;20235;-74
2021/06/21 03:17:36;;;;;;;15.23;4.30;;;14.20;99.90;;;;;;4949174;29;20288;-75
2021/06/21 03:20:04;;;;;;;10.93;3.90;;;14.20;99.90;;;;;;4946555;29;20207;-74
2021/06/21 03:22:31;;;;;;;14.60;4.03;;;14.20;99.90;;;;;;4942923;29;20224;-75
2021/06/21 03:24:58;;;;;;;12.10;3.90;;;14.10;99.90;;;;;;4955080;28;20289;-74
2021/06/21 03:27:31;;;;;;;19.10;4.23;;;14.10;99.90;;;;;;4956008;29;20230;-74
2021/06/21 03:29:59;;;;;;;11.63;3.47;;;14.10;99.90;;;;;;4955839;29;20295;-75
2021/06/21 03:32:29;;;;;;;13.17;3.93;;;14.10;99.90;;;;;;4955542;29;20294;-74
2021/06/21 03:34:58;;;;;;;12.97;4.10;;;14.10;99.90;;;;;;4955083;29;20242;-74
2021/06/21 03:37:25;;;;;;;13.57;3.50;;;14.10;99.90;;;;;;4948915;29;20676;-74
2021/06/21 03:39:52;;;;;;;13.60;3.43;;;14.00;99.90;;;;;;4936633;29;20287;-74
2021/06/21 03:42:19;;;;;;;13.03;3.60;;;13.90;99.90;;;;;;4944099;29;20251;-75
2021/06/21 03:44:48;;;;;;;12.27;3.70;;;13.90;99.90;;;;;;4955633;29;20290;-74
2021/06/21 03:47:16;;;;;;;9.37;3.50;;;13.80;99.90;;;;;;4955320;29;20239;-74
2021/06/21 03:49:48;;;;;;;11.40;3.67;;;13.90;99.90;;;;;;4947642;29;20305;-74
2021/06/21 03:52:15;;;;;;;13.07;3.30;;;14.00;99.90;;;;;;4953887;29;20475;-75
2021/06/21 03:54:42;;;;;;;11.13;3.80;;;14.00;99.90;;;;;;4952661;29;20302;-74
2021/06/21 03:57:10;;;;;;;11.83;3.53;;;14.00;99.90;;;;;;4954177;29;20281;-74
2021/06/21 03:59:37;;;;;;;10.23;3.57;;;14.00;99.90;;;;;;4948282;29;20208;-74
2021/06/21 04:02:06;;;;;;;12.00;4.10;;;14.00;99.90;;;;;;4935677;29;20314;-74
2021/06/21 04:04:33;;;;;;;11.60;3.77;;;14.00;99.90;;;;;;4935882;29;20220;-74
2021/06/21 04:07:00;;;;;;;15.17;4.00;;;14.00;99.90;;;;;;4945523;29;20371;-74
2021/06/21 04:09:27;;;;;;;11.50;4.03;;;14.10;99.90;;;;;;4954469;29;20294;-74
2021/06/21 04:11:54;;;;;;;16.30;3.57;;;14.10;99.90;;;;;;4954915;29;20278;-74
2021/06/21 04:14:21;;;;;;;13.87;3.70;;;14.00;99.90;;;;;;4954871;29;20207;-74
2021/06/21 04:16:48;;;;;;;10.10;3.80;;;13.90;99.90;;;;;;4954455;29;20235;-75
2021/06/21 04:19:16;;;;;;;16.50;4.50;;;13.90;99.90;;;;;;4949700;29;20231;-75
2021/06/21 04:21:43;;;;;;;14.50;3.87;;;13.90;99.90;;;;;;4954431;29;20377;-75
2021/06/21 04:24:10;;;;;;;13.50;3.67;;;13.90;99.90;;;;;;4954432;29;20302;-75
2021/06/21 04:26:37;;;;;;;14.93;3.70;;;13.80;99.90;;;;;;4954548;29;20298;-75
2021/06/21 04:29:05;;;;;;;12.17;3.63;;;13.80;99.90;;;;;;4944190;29;20195;-75
2021/06/21 04:31:32;;;;;;;10.13;3.37;;;13.80;99.90;;;;;;4953694;29;20204;-75
2021/06/21 04:33:59;;;;;;;16.10;3.93;;;13.80;99.90;;;;;;4954990;29;20627;-76
2021/06/21 04:36:28;;;;;;;14.67;4.13;;;13.70;99.90;;;;;;4954137;28;20211;-75
2021/06/21 04:38:55;;;;;;;13.17;3.93;;;13.70;99.90;;;;;;4940035;29;20290;-74
2021/06/21 04:41:21;;;;;;;15.87;4.03;;;13.70;99.90;;;;;;4941890;29;20313;-75
2021/06/21 04:43:48;;;;;;;12.27;3.70;;;13.60;99.90;;;;;;4954549;29;20235;-74
2021/06/21 04:46:15;;;;;;;15.17;4.20;;;13.70;99.90;;;;;;4952741;29;20234;-75
2021/06/21 04:48:43;;;;;;;18.70;4.70;;;13.70;99.90;;;;;;4945741;29;20310;-74
2021/06/21 04:51:10;;;;;;;13.57;4.63;;;13.70;99.90;;;;;;4947207;29;20312;-74
2021/06/21 04:53:38;;;;;;;14.23;4.50;;;13.70;99.90;;;;;;4940868;29;20673;-75
2021/06/21 04:56:06;;;;;;;15.67;4.63;;;13.70;99.90;;;;;;4943680;28;20243;-75
2021/06/21 04:58:35;;;;;;;11.67;4.43;;;13.70;99.90;;;;;;4953570;29;20203;-75
2021/06/21 05:01:02;;;;;;;20.93;4.80;;;13.70;99.90;;;;;;4952934;29;20575;-75
2021/06/21 05:03:29;;;;;;;17.67;5.13;;;13.70;99.90;;;;;;4952202;29;20199;-76
2021/06/21 05:05:56;;;;;;;13.80;4.80;;;13.80;99.90;;;;;;4953414;29;20203;-75
2021/06/21 05:08:24;;;;;;;11.83;4.67;;;13.90;99.90;;;;;;4954084;29;20625;-74
2021/06/21 05:10:53;;;;;;;13.80;4.83;;;14.00;99.90;;;;;;4947402;29;20227;-74
2021/06/21 05:13:19;;;;;;;17.13;4.73;;;14.00;99.90;;;;;;4935003;29;20295;-75
2021/06/21 05:15:46;;;;;;;16.33;4.70;;;14.10;99.90;;;;;;4943479;29;20261;-75
2021/06/21 05:18:13;;;;;;;13.37;4.70;;;14.10;99.90;;;;;;4945317;29;20240;-75
2021/06/21 05:20:40;;;;;;;15.03;4.30;;;14.20;99.90;;;;;;4944150;29;20289;-75
2021/06/21 05:23:08;;;;;;;21.37;4.60;;;14.20;99.90;;;;;;4950972;29;20305;-75
2021/06/21 05:25:35;;;;;;;16.87;4.53;;;14.20;99.90;;;;;;4934841;29;20246;-76
2021/06/21 05:28:04;;;;;;;17.40;4.93;;;14.20;99.90;;;;;;4934668;29;20234;-76
2021/06/21 05:30:31;;;;;;;14.40;4.97;;;14.10;99.90;;;;;;4948072;29;20235;-76
2021/06/21 05:32:58;;;;;;;17.20;5.37;;;14.00;99.90;;;;;;4948790;29;20635;-77
2021/06/21 05:35:25;;;;;;;16.67;4.97;;;14.00;99.90;;;;;;4939835;29;20298;-76
2021/06/21 05:37:55;;;;;;;15.17;4.93;;;14.00;99.90;;;;;;4944150;29;20266;-76
2021/06/21 05:40:22;;;;;;;14.33;5.13;;;14.00;99.90;;;;;;4944854;29;20741;-76
2021/06/21 05:42:49;;;;;;;12.57;5.40;;;14.00;99.90;;;;;;4952152;28;20339;-74
2021/06/21 05:45:17;;;;;;;15.07;5.57;;;14.10;99.90;;;;;;4934465;29;20207;-76
2021/06/21 05:47:45;;;;;;;10.53;4.93;;;14.30;99.90;;;;;;4933806;29;20204;-75
2021/06/21 05:50:13;;;;;;;11.20;5.03;;;14.30;99.90;;;;;;4934991;29;20207;-75
2021/06/21 05:52:40;;;;;;;16.00;5.30;;;14.60;99.90;;;;;;4941376;29;20255;-75
2021/06/21 05:55:08;;;;;;;12.13;4.83;;;14.40;99.90;;;;;;4937982;28;20298;-75
2021/06/21 05:57:35;;;;;;;9.03;4.90;;;14.60;99.90;;;;;;4935283;29;20211;-75
2021/06/21 06:00:03;;;;;;;9.40;4.77;;;14.70;99.90;;;;;;4951007;29;20655;-76
2021/06/21 06:02:31;;;;;;;11.23;4.60;;;15.10;99.90;;;;;;4952109;29;20317;-75
2021/06/21 06:04:58;;;;;;;9.17;4.30;;;15.40;99.90;;;;;;4951316;29;20206;-74
2021/06/21 06:07:25;;;;;;;7.30;4.10;;;15.30;99.90;;;;;;4933380;29;20252;-76
2021/06/21 06:09:52;;;;;;;8.30;4.10;;;15.30;99.90;;;;;;4950794;29;20285;-76
2021/06/21 06:12:19;;;;;;;8.57;4.30;;;15.50;99.90;;;;;;4949042;29;20658;-75
2021/06/21 06:14:46;;;;;;;7.43;3.90;;;15.70;99.90;;;;;;4952944;29;20203;-75
2021/06/21 06:17:13;;;;;;;8.80;4.10;;;15.80;99.90;;;;;;4952808;29;20238;-75
2021/06/21 06:19:41;;;;;;;8.57;4.13;;;16.20;99.90;;;;;;4953256;29;20299;-75
2021/06/21 06:22:09;;;;;;;8.07;4.03;;;16.60;99.90;;;;;;4952937;29;20219;-75
2021/06/21 06:24:36;;;;;;;8.10;3.47;;;17.40;99.90;;;;;;4950137;29;20207;-76
2021/06/21 06:27:03;;;;;;;7.88;4.13;;;17.80;99.90;;;;;;4933944;29;20239;-75
2021/06/21 06:29:32;;;;;;;7.68;4.05;;;18.10;99.90;;;;;;4948020;28;20626;-76
2021/06/21 06:32:00;;;;;;;10.45;3.83;;;17.50;99.90;;;;;;4960168;28;20201;-76
2021/06/21 06:34:27;;;;;;;11.38;3.88;;;17.40;99.90;;;;;;4936103;28;20307;-76
2021/06/21 06:36:56;;;;;;;8.05;3.72;;;18.60;99.90;;;;;;4943734;29;20650;-76
2021/06/21 06:39:23;;;;;;;8.38;3.60;;;19.70;99.90;;;;;;4946653;29;20297;-76
2021/06/21 06:41:50;;;;;;;6.13;2.97;;;21.30;99.90;;;;;;4933711;29;20266;-76
2021/06/21 06:44:17;;;;;;;7.18;3.35;;;21.40;99.90;;;;;;4945194;29;20290;-76
2021/06/21 06:46:44;;;;;;;7.93;3.22;;;22.00;99.90;;;;;;4962477;28;20630;-76
2021/06/21 06:49:12;;;;;;;6.97;3.17;;;20.80;99.90;;;;;;4946095;29;20226;-76
2021/06/21 06:51:42;;;;;;;6.38;3.10;;;20.30;99.90;;;;;;4945042;29;20245;-76
2021/06/21 06:54:21;;;;;;;9.85;2.92;;;20.30;99.90;;;;;;4947347;29;20507;-76
2021/06/21 06:57:00;;;;;;;6.15;3.00;;;22.50;99.90;;;;;;4945101;28;20245;-76
2021/06/21 06:59:32;;;;;;;5.45;3.03;;;22.70;99.90;;;;;;4952615;28;20211;-77
2021/06/21 07:02:00;;;;;;;7.10;3.22;;;22.40;99.90;;;;;;4941383;29;20306;-76
2021/06/21 07:04:28;;;;;;;6.60;3.22;;;22.60;99.90;;;;;;4959431;28;20314;-78
2021/06/21 07:06:56;;;;;;;9.15;2.53;;;22.60;99.90;;;;;;4948523;29;20234;-77
2021/06/21 07:09:26;;;;;;;7.72;2.58;;;24.40;99.90;;;;;;4951535;29;20584;-76
2021/06/21 07:11:53;;;;;;;6.35;2.67;;;23.60;99.90;;;;;;4949985;29;20223;-76
2021/06/21 07:14:20;;;;;;;5.95;2.88;;;21.80;99.90;;;;;;4953727;29;20286;-76
2021/06/21 07:16:48;;;;;;;9.18;2.95;;;20.80;99.90;;;;;;4941064;29;20302;-77
2021/06/21 07:19:15;;;;;;;7.03;2.72;;;20.10;99.90;;;;;;4952231;29;20685;-76
2021/06/21 07:21:43;;;;;;;7.80;2.90;;;19.50;99.90;;;;;;4949464;29;20908;-76
2021/06/21 07:24:10;;;;;;;8.27;2.97;;;19.40;99.90;;;;;;4941350;29;20286;-76
2021/06/21 07:26:39;;;;;;;5.35;2.90;;;19.20;99.90;;;;;;4950845;29;20265;-76
2021/06/21 07:29:06;;;;;;;8.98;3.35;;;19.50;99.90;;;;;;4948499;29;20286;-76
2021/06/21 07:31:34;;;;;;;6.82;3.17;;;19.40;99.90;;;;;;4954847;29;20630;-76
2021/06/21 07:34:01;;;;;;;7.53;2.67;;;19.70;99.90;;;;;;4949159;29;20200;-76
2021/06/21 07:36:29;;;;;;;8.90;3.05;;;19.80;99.90;;;;;;4953657;28;20294;-76
2021/06/21 07:38:56;;;;;;;8.82;2.78;;;19.90;99.90;;;;;;4954188;28;20208;-76
2021/06/21 07:41:23;;;;;;;8.95;2.53;;;20.00;99.90;;;;;;4945942;29;20322;-76
2021/06/21 07:43:52;;;;;;;8.23;3.38;;;19.80;99.90;;;;;;4949793;29;20310;-76
2021/06/21 07:46:19;;;;;;;8.35;3.03;;;19.90;99.90;;;;;;4949120;29;20290;-77
2021/06/21 07:48:46;;;;;;;7.50;2.85;;;19.70;99.90;;;;;;4953264;28;20637;-77
2021/06/21 07:51:15;;;;;;;6.07;2.65;;;20.20;99.90;;;;;;4950827;29;20263;-76
2021/06/21 07:53:45;;;;;;;5.22;2.40;;;20.30;99.90;;;;;;4943239;29;20286;-76
2021/06/21 07:56:13;;;;;;;9.45;3.28;;;20.10;99.90;;;;;;4942546;28;20294;-76
2021/06/21 07:58:41;;;;;;;12.93;5.03;;;19.20;99.90;;;;;;4949617;29;20207;-76
2021/06/21 08:01:12;;;;;;;8.60;3.00;;;19.20;99.90;;;;;;4949301;29;20203;-76
2021/06/21 08:03:39;;;;;;;10.45;3.50;;;19.60;99.90;;;;;;4933043;29;20256;-76
2021/06/21 08:06:10;;;;;;;9.23;2.90;;;20.10;99.90;;;;;;4942853;29;20239;-76
2021/06/21 08:08:37;;;;;;;10.65;3.28;;;20.30;99.90;;;;;;4952641;29;20207;-76
2021/06/21 08:11:05;;;;;;;8.25;3.38;;;19.70;99.90;;;;;;4944979;29;20236;-76
2021/06/21 08:13:32;;;;;;;8.60;3.15;;;19.90;99.90;;;;;;4942648;29;20231;-76
2021/06/21 08:15:59;;;;;;;6.55;2.70;;;19.80;99.90;;;;;;4946121;29;20239;-76
2021/06/21 08:18:27;;;;;;;8.30;2.15;;;20.60;99.90;;;;;;4946590;29;20286;-76
2021/06/21 08:20:54;;;;;;;8.38;3.05;;;21.00;99.90;;;;;;4939514;29;20207;-76
2021/06/21 08:23:21;;;;;;;10.05;2.95;;;20.20;99.90;;;;;;4944380;29;20513;-76
2021/06/21 08:25:48;;;;;;;4.57;2.22;;;20.30;99.90;;;;;;4941197;29;20239;-76
2021/06/21 08:28:16;;;;;;;8.70;2.70;;;21.70;99.90;;;;;;4945052;29;20230;-76
2021/06/21 08:30:46;;;;;;;9.85;3.00;;;21.60;99.90;;;;;;4941220;29;20250;-76
2021/06/21 08:33:13;;;;;;;8.30;2.83;;;21.80;99.90;;;;;;4919403;29;20574;-77
2021/06/21 08:35:42;;;;;;;7.63;2.25;;;21.70;99.90;;;;;;4954443;29;20253;-76
2021/06/21 08:38:09;;;;;;;8.25;2.58;;;22.50;99.90;;;;;;4953491;29;20716;-77
2021/06/21 08:40:36;;;;;;;6.95;2.50;;;22.60;99.90;;;;;;4950391;29;20298;-76
2021/06/21 08:43:04;;;;;;;4.43;1.80;;;22.90;99.90;;;;;;4943845;29;20314;-77
2021/06/21 08:45:32;;;;;;;6.13;1.45;;;23.40;99.90;;;;;;4946360;29;20392;-77
2021/06/21 08:48:00;;;;;;;4.68;1.48;;;24.80;99.90;;;;;;4953373;29;20687;-77
2021/06/21 08:50:27;;;;;;;3.58;1.15;;;26.60;99.90;;;;;;4943121;29;20721;-77
2021/06/21 08:52:58;;;;;;;4.05;1.67;;;28.20;99.90;;;;;;4947020;29;20263;-77
2021/06/21 08:55:26;;;;;;;5.13;1.45;;;27.10;99.90;;;;;;4948483;28;20647;-77
2021/06/21 08:57:52;;;;;;;6.00;1.95;;;28.20;99.90;;;;;;4939837;29;20294;-76
2021/06/21 09:00:22;;;;;;;4.28;1.55;;;25.20;99.90;;;;;;4950158;29;20286;-77
2021/06/21 09:02:49;;;;;;;3.88;1.50;;;24.60;99.90;;;;;;4943129;29;20215;-77
2021/06/21 09:05:16;;;;;;;6.13;1.70;;;24.40;99.90;;;;;;4949410;29;20293;-77
2021/06/21 09:07:45;;;;;;;3.40;1.63;;;24.60;99.90;;;;;;4950063;29;20259;-77
2021/06/21 09:10:25;;;;;;;4.03;1.70;;;25.40;99.90;;;;;;4938335;29;20617;-76
2021/06/21 09:13:03;;;;;;;6.32;1.50;;;24.90;99.90;;;;;;4946532;29;20203;-77
2021/06/21 09:15:32;;;;;;;3.38;1.65;;;24.90;99.90;;;;;;4937235;29;20625;-77
2021/06/21 09:18:00;;;;;;;5.30;1.88;;;24.10;99.90;;;;;;4954413;29;20230;-76
2021/06/21 09:20:27;;;;;;;3.90;1.60;;;24.80;99.90;;;;;;4954151;29;20203;-77
2021/06/21 09:23:00;;;;;;;5.50;2.00;;;23.30;99.90;;;;;;4951959;28;20650;-77
2021/06/21 09:25:29;;;;;;;4.20;1.73;;;22.70;99.90;;;;;;4937368;29;20314;-77
2021/06/21 09:27:59;;;;;;;5.30;1.60;;;24.50;99.90;;;;;;4943695;29;20294;-78
2021/06/21 09:30:26;;;;;;;5.30;1.45;;;26.50;99.90;;;;;;4947917;29;20206;-77
2021/06/21 09:32:54;;;;;;;2.95;1.20;;;25.90;99.90;;;;;;4936422;29;20234;-77
2021/06/21 09:35:41;;;;;;;3.53;0.98;;;26.20;99.90;;;;;;4949175;29;20211;-77
2021/06/21 09:38:15;;;;;;;3.22;1.00;;;27.30;99.90;;;;;;4953161;29;20211;-78
2021/06/21 09:40:48;;;;;;;2.47;1.10;;;29.40;99.90;;;;;;4953030;29;20605;-77
2021/06/21 09:43:20;;;;;;;2.88;1.10;;;28.30;99.90;;;;;;4942585;29;20226;-78
2021/06/21 09:46:07;;;;;;;3.00;1.25;;;30.00;99.90;;;;;;4953956;29;20250;-78
2021/06/21 09:48:36;;;;;;;3.13;1.10;;;29.80;99.90;;;;;;4942536;29;20310;-78
2021/06/21 09:51:18;;;;;;;2.70;0.82;;;30.60;99.90;;;;;;4950699;29;20666;-78
2021/06/21 09:53:56;;;;;;;1.95;0.90;;;29.20;99.90;;;;;;4951906;29;20270;-78
2021/06/21 09:56:39;;;;;;;1.75;0.70;;;28.60;99.90;;;;;;4943110;28;20298;-78
2021/06/21 09:59:24;;;;;;;2.35;0.75;;;28.10;99.90;;;;;;4939849;29;20202;-77
2021/06/21 10:02:07;;;;;;;3.33;0.85;;;27.80;99.90;;;;;;4942922;29;20291;-78
2021/06/21 10:04:35;;;;;;;1.98;0.70;;;29.40;99.90;;;;;;4948471;29;20302;-78
2021/06/21 10:07:03;;;;;;;1.52;0.80;;;30.00;99.90;;;;;;4950881;29;20608;-78
2021/06/21 10:09:30;;;;;;;3.10;0.80;;;29.40;99.90;;;;;;4952135;29;20707;-77
2021/06/21 10:11:59;;;;;;;3.85;1.10;;;29.90;99.90;;;;;;4936649;29;20677;-78
2021/06/21 10:14:27;;;;;;;1.42;1.00;;;30.20;99.90;;;;;;4939838;29;20290;-78
2021/06/21 10:16:57;;;;;;;2.35;0.90;;;30.50;99.90;;;;;;4939184;29;20200;-78
2021/06/21 10:19:24;;;;;;;2.38;0.82;;;31.10;99.90;;;;;;4946513;29;20207;-78
2021/06/21 10:21:55;;;;;;;2.65;1.23;;;30.80;99.90;;;;;;4937258;29;20253;-78
2021/06/21 10:24:26;;;;;;;3.90;1.08;;;29.70;99.90;;;;;;4949973;29;20227;-78
2021/06/21 10:26:53;;;;;;;3.38;0.95;;;25.50;99.90;;;;;;4940657;29;20203;-78
2021/06/21 10:29:22;;;;;;;2.70;1.13;;;26.00;99.90;;;;;;4947808;29;20303;-78
2021/06/21 10:31:49;;;;;;;2.72;0.82;;;25.30;99.90;;;;;;4952954;29;20293;-78
2021/06/21 10:34:18;;;;;;;1.77;0.70;;;27.50;99.90;;;;;;4940344;28;20588;-77
2021/06/21 10:36:47;;;;;;;2.22;1.20;;;27.10;99.90;;;;;;4942066;28;20302;-77
2021/06/21 10:39:19;;;;;;;2.85;0.80;;;26.90;99.90;;;;;;4937897;29;20268;-78
2021/06/21 10:42:20;;;;;;;1.98;0.90;;;26.90;99.90;;;;;;4943339;29;20749;-78
2021/06/21 10:44:51;;;;;;;2.40;0.73;;;26.80;99.90;;;;;;4943422;29;20222;-78
2021/06/21 10:47:28;;;;;;;2.03;0.88;;;28.90;99.90;;;;;;4952207;29;20279;-77
2021/06/21 10:49:57;;;;;;;1.42;0.73;;;29.40;99.90;;;;;;4953991;29;20313;-77
2021/06/21 10:52:36;;;;;;;1.77;1.15;;;28.80;99.90;;;;;;4955080;29;20236;-77
2021/06/21 10:55:38;;;;;;;3.38;1.80;;;28.50;99.90;;;;;;4947413;28;20622;-77
2021/06/21 10:58:08;;;;;;;2.58;0.90;;;27.20;99.90;;;;;;4947416;29;20684;-78
2021/06/21 11:00:42;;;;;;;1.40;0.70;;;26.50;99.90;;;;;;4944943;29;20246;-77
2021/06/21 11:03:34;;;;;;;1.48;0.75;;;26.50;99.90;;;;;;4941633;29;20580;-77
2021/06/21 11:06:03;;;;;;;2.95;0.77;;;27.00;99.90;;;;;;4944385;29;20200;-77
2021/06/21 11:08:42;;;;;;;2.05;0.70;;;26.30;99.90;;;;;;4941621;29;20234;-77
2021/06/21 11:11:51;;;;;;;1.42;0.60;;;26.00;99.90;;;;;;4939690;29;20665;-79
2021/06/21 11:14:28;;;;;;;2.58;0.65;;;27.00;99.90;;;;;;4914277;29;20197;-77
2021/06/21 11:17:20;;;;;;;2.38;0.75;;;28.60;99.90;;;;;;4914619;29;20256;-78
2021/06/21 11:19:47;;;;;;;3.38;0.70;;;29.50;99.90;;;;;;4910714;29;20266;-77
2021/06/21 11:22:15;;;;;;;4.10;0.80;;;28.40;99.90;;;;;;4913929;29;20268;-78
2021/06/21 11:24:53;;;;;;;2.55;0.70;;;28.70;99.90;;;;;;4915221;29;20245;-77
2021/06/21 11:27:22;;;;;;;2.30;0.90;;;28.00;99.90;;;;;;4911111;29;20236;-77
2021/06/21 11:29:52;;;;;;;3.50;0.65;;;25.80;99.90;;;;;;4914707;29;20207;-77
2021/06/21 11:32:21;;;;;;;2.58;0.90;;;25.30;99.90;;;;;;4913900;29;20572;-77
2021/06/21 11:34:51;;;;;;;1.10;0.60;;;24.40;99.90;;;;;;4920085;29;20201;-77
2021/06/21 11:37:32;;;;;;;1.30;0.70;;;24.00;99.90;;;;;;4915131;29;20228;-78
2021/06/21 11:40:29;;;;;;;2.88;1.25;;;24.30;99.90;;;;;;4908641;29;20232;-77
2021/06/21 11:43:16;;;;;;;7.30;0.90;;;24.80;99.90;;;;;;4908158;29;20663;-77
2021/06/21 11:45:58;;;;;;;1.92;0.60;;;25.00;99.90;;;;;;4914208;29;20251;-77
2021/06/21 11:48:36;;;;;;;2.55;0.73;;;26.30;99.90;;;;;;4913868;29;20232;-77
2021/06/21 11:51:10;;;;;;;1.67;0.50;;;27.10;99.90;;;;;;4932373;29;20235;-77
2021/06/21 11:53:41;;;;;;;2.58;0.70;;;25.90;99.90;;;;;;4955673;29;20207;-77
2021/06/21 11:56:08;;;;;;;1.27;0.60;;;25.10;99.90;;;;;;4955385;29;20254;-77
2021/06/21 11:58:35;;;;;;;3.05;0.70;;;24.30;99.90;;;;;;4946404;29;20243;-77
2021/06/21 12:01:15;;;;;;;3.25;0.93;;;23.60;99.90;;;;;;4952868;29;20234;-77
2021/06/21 12:03:45;;;;;;;1.95;0.60;;;22.90;99.90;;;;;;4947603;29;20630;-76
2021/06/21 12:06:14;;;;;;;4.57;0.85;;;22.30;99.90;;;;;;4952478;29;20209;-77
2021/06/21 12:08:41;;;;;;;7.10;1.13;;;21.60;99.90;;;;;;4951305;29;20203;-76
2021/06/21 12:11:12;;;;;;;2.03;0.50;;;21.00;99.90;;;;;;4940363;29;20290;-76
2021/06/21 12:13:39;;;;;;;1.77;0.50;;;20.60;99.90;;;;;;4946785;29;20306;-76
2021/06/21 12:16:09;;;;;;;2.35;0.52;;;19.90;99.90;;;;;;4954994;29;20298;-76
2021/06/21 12:18:36;;;;;;;0.95;0.40;;;19.40;99.90;;;;;;4955367;29;20207;-76
2021/06/21 12:21:04;;;;;;;0.85;0.50;;;19.00;99.90;;;;;;4953172;29;20206;-76
2021/06/21 12:23:31;;;;;;;1.50;0.57;;;18.50;99.90;;;;;;4936830;29;20235;-76
2021/06/21 12:26:00;;;;;;;1.42;0.40;;;18.20;99.90;;;;;;4935834;29;20654;-75
2021/06/21 12:28:29;;;;;;;1.63;0.50;;;17.80;99.90;;;;;;4947858;29;20549;-75
2021/06/21 12:30:58;;;;;;;0.73;0.45;;;17.70;99.90;;;;;;4950431;29;20243;-75
2021/06/21 12:33:29;;;;;;;1.70;0.50;;;17.40;99.90;;;;;;4924558;29;20246;-76
2021/06/21 12:36:19;;;;;;;1.15;0.73;;;17.20;99.90;;;;;;4947135;29;20314;-75
2021/06/21 12:38:55;;;;;;;3.73;0.80;;;17.00;99.90;;;;;;4934011;29;20598;-76
2021/06/21 12:41:25;;;;;;;4.10;0.80;;;16.80;99.90;;;;;;4937641;29;20677;-75
2021/06/21 12:43:57;;;;;;;2.67;0.83;;;16.70;99.90;;;;;;4954486;29;20266;-75
2021/06/21 12:46:26;;;;;;;2.80;1.10;;;16.50;99.90;;;;;;4945305;29;20602;-75
2021/06/21 12:48:54;;;;;;;2.70;1.20;;;16.40;99.90;;;;;;4938672;29;20254;-75
2021/06/21 12:51:23;;;;;;;1.77;0.90;;;16.40;99.90;;;;;;4925424;29;20318;-77
2021/06/21 12:53:52;;;;;;;3.00;0.80;;;16.30;99.90;;;;;;4935377;29;20200;-76
2021/06/21 12:56:24;;;;;;;3.30;0.80;;;16.10;99.90;;;;;;4944862;29;20633;-75
2021/06/21 12:58:51;;;;;;;1.87;0.60;;;16.10;99.90;;;;;;4944881;28;20199;-75